sensor_id;sensor_type;location;lat;lon;timestamp;temperature;humidity
28530;DHT22;15737;49.760;6.632;2022-07-05T00:00:55;15.10;81.80
28530;DHT22;15737;49.760;6.632;2022-07-05T00:03:20;15.10;82.00
28530;DHT22;15737;49.760;6.632;2022-07-05T00:05:46;15.00;82.10
28530;DHT22;15737;49.760;6.632;2022-07-05T00:08:12;15.00;82.60
28530;DHT22;15737;49.760;6.632;2022-07-05T00:10:38;14.90;83.60
28530;DHT22;15737;49.760;6.632;2022-07-05T00:13:04;14.90;84.50
28530;DHT22;15737;49.760;6.632;2022-07-05T00:15:30;14.80;84.60
28530;DHT22;15737;49.760;6.632;2022-07-05T00:17:56;14.80;85.20
28530;DHT22;15737;49.760;6.632;2022-07-05T00:20:21;14.80;85.70
28530;DHT22;15737;49.760;6.632;2022-07-05T00:22:47;14.70;85.90
28530;DHT22;15737;49.760;6.632;2022-07-05T00:25:12;14.70;86.30
28530;DHT22;15737;49.760;6.632;2022-07-05T00:27:38;14.60;87.30
28530;DHT22;15737;49.760;6.632;2022-07-05T00:30:05;14.60;88.30
28530;DHT22;15737;49.760;6.632;2022-07-05T00:32:31;14.60;89.30
28530;DHT22;15737;49.760;6.632;2022-07-05T00:34:57;14.50;90.00
28530;DHT22;15737;49.760;6.632;2022-07-05T00:37:22;14.40;90.20
28530;DHT22;15737;49.760;6.632;2022-07-05T00:39:48;14.40;90.40
28530;DHT22;15737;49.760;6.632;2022-07-05T00:42:13;14.30;90.90
28530;DHT22;15737;49.760;6.632;2022-07-05T00:44:40;14.30;91.10
28530;DHT22;15737;49.760;6.632;2022-07-05T00:47:08;14.30;91.70
28530;DHT22;15737;49.760;6.632;2022-07-05T00:49:35;14.20;92.30
28530;DHT22;15737;49.760;6.632;2022-07-05T00:52:02;14.20;93.00
28530;DHT22;15737;49.760;6.632;2022-07-05T00:54:28;14.10;93.40
28530;DHT22;15737;49.760;6.632;2022-07-05T00:56:55;14.10;93.70
28530;DHT22;15737;49.760;6.632;2022-07-05T00:59:21;14.00;94.00
28530;DHT22;15737;49.760;6.632;2022-07-05T01:01:47;14.00;94.50
28530;DHT22;15737;49.760;6.632;2022-07-05T01:04:13;13.90;94.90
28530;DHT22;15737;49.760;6.632;2022-07-05T01:06:41;13.80;95.30
28530;DHT22;15737;49.760;6.632;2022-07-05T01:09:10;13.80;95.70
28530;DHT22;15737;49.760;6.632;2022-07-05T01:11:38;13.80;96.10
28530;DHT22;15737;49.760;6.632;2022-07-05T01:14:04;13.80;96.50
28530;DHT22;15737;49.760;6.632;2022-07-05T01:16:33;13.80;96.70
28530;DHT22;15737;49.760;6.632;2022-07-05T01:18:58;13.90;96.90
28530;DHT22;15737;49.760;6.632;2022-07-05T01:21:26;13.90;97.10
28530;DHT22;15737;49.760;6.632;2022-07-05T01:23:53;13.80;97.30
28530;DHT22;15737;49.760;6.632;2022-07-05T01:26:19;13.80;97.60
28530;DHT22;15737;49.760;6.632;2022-07-05T01:28:44;13.70;98.20
28530;DHT22;15737;49.760;6.632;2022-07-05T01:31:10;13.70;98.40
28530;DHT22;15737;49.760;6.632;2022-07-05T01:33:36;13.60;98.60
28530;DHT22;15737;49.760;6.632;2022-07-05T01:36:02;13.60;98.80
28530;DHT22;15737;49.760;6.632;2022-07-05T01:38:27;13.50;99.00
28530;DHT22;15737;49.760;6.632;2022-07-05T01:40:53;13.50;99.50
28530;DHT22;15737;49.760;6.632;2022-07-05T01:43:22;13.60;99.10
28530;DHT22;15737;49.760;6.632;2022-07-05T01:45:49;13.70;99.00
28530;DHT22;15737;49.760;6.632;2022-07-05T01:48:17;13.90;98.70
28530;DHT22;15737;49.760;6.632;2022-07-05T01:50:53;13.90;98.20
28530;DHT22;15737;49.760;6.632;2022-07-05T01:53:23;13.70;99.30
28530;DHT22;15737;49.760;6.632;2022-07-05T01:55:50;13.60;99.70
28530;DHT22;15737;49.760;6.632;2022-07-05T01:58:16;13.50;99.90
28530;DHT22;15737;49.760;6.632;2022-07-05T02:00:43;13.50;99.90
28530;DHT22;15737;49.760;6.632;2022-07-05T02:03:09;13.40;99.90
28530;DHT22;15737;49.760;6.632;2022-07-05T02:05:35;13.30;99.90
28530;DHT22;15737;49.760;6.632;2022-07-05T02:08:01;13.20;99.90
28530;DHT22;15737;49.760;6.632;2022-07-05T02:10:26;13.10;99.90
28530;DHT22;15737;49.760;6.632;2022-07-05T02:12:52;13.10;99.90
28530;DHT22;15737;49.760;6.632;2022-07-05T02:15:18;13.00;99.90
28530;DHT22;15737;49.760;6.632;2022-07-05T02:17:43;13.00;99.90
28530;DHT22;15737;49.760;6.632;2022-07-05T02:20:09;12.90;99.90
28530;DHT22;15737;49.760;6.632;2022-07-05T02:22:35;12.90;99.90
28530;DHT22;15737;49.760;6.632;2022-07-05T02:25:00;12.90;99.90
28530;DHT22;15737;49.760;6.632;2022-07-05T02:27:26;12.80;99.90
28530;DHT22;15737;49.760;6.632;2022-07-05T02:29:52;12.80;99.90
28530;DHT22;15737;49.760;6.632;2022-07-05T02:32:17;12.80;99.90
28530;DHT22;15737;49.760;6.632;2022-07-05T02:34:43;12.80;99.90
28530;DHT22;15737;49.760;6.632;2022-07-05T02:37:08;12.70;99.90
28530;DHT22;15737;49.760;6.632;2022-07-05T02:39:34;12.70;99.90
28530;DHT22;15737;49.760;6.632;2022-07-05T02:41:59;12.60;99.90
28530;DHT22;15737;49.760;6.632;2022-07-05T02:44:25;12.60;99.90
28530;DHT22;15737;49.760;6.632;2022-07-05T02:46:51;12.60;99.90
28530;DHT22;15737;49.760;6.632;2022-07-05T02:49:17;12.70;99.90
28530;DHT22;15737;49.760;6.632;2022-07-05T02:51:43;12.70;99.90
28530;DHT22;15737;49.760;6.632;2022-07-05T02:54:08;12.70;99.90
28530;DHT22;15737;49.760;6.632;2022-07-05T02:56:34;12.60;99.90
28530;DHT22;15737;49.760;6.632;2022-07-05T02:58:59;12.80;99.90
28530;DHT22;15737;49.760;6.632;2022-07-05T03:01:25;12.80;99.90
28530;DHT22;15737;49.760;6.632;2022-07-05T03:03:50;12.80;99.90
28530;DHT22;15737;49.760;6.632;2022-07-05T03:06:16;12.70;99.90
28530;DHT22;15737;49.760;6.632;2022-07-05T03:08:41;12.60;99.90
28530;DHT22;15737;49.760;6.632;2022-07-05T03:11:07;12.50;99.90
28530;DHT22;15737;49.760;6.632;2022-07-05T03:13:33;12.40;99.90
28530;DHT22;15737;49.760;6.632;2022-07-05T03:15:58;12.30;99.90
28530;DHT22;15737;49.760;6.632;2022-07-05T03:18:24;12.20;99.90
28530;DHT22;15737;49.760;6.632;2022-07-05T03:20:49;12.20;99.90
28530;DHT22;15737;49.760;6.632;2022-07-05T03:23:15;12.10;99.90
28530;DHT22;15737;49.760;6.632;2022-07-05T03:25:40;12.10;99.90
28530;DHT22;15737;49.760;6.632;2022-07-05T03:28:06;12.10;99.90
28530;DHT22;15737;49.760;6.632;2022-07-05T03:30:34;12.00;99.90
28530;DHT22;15737;49.760;6.632;2022-07-05T03:33:00;12.00;99.90
28530;DHT22;15737;49.760;6.632;2022-07-05T03:35:27;11.90;99.90
28530;DHT22;15737;49.760;6.632;2022-07-05T03:37:53;11.90;99.90
28530;DHT22;15737;49.760;6.632;2022-07-05T03:40:18;11.90;99.90
28530;DHT22;15737;49.760;6.632;2022-07-05T03:42:44;11.90;99.90
28530;DHT22;15737;49.760;6.632;2022-07-05T03:45:10;11.90;99.90
28530;DHT22;15737;49.760;6.632;2022-07-05T03:47:35;11.90;99.90
28530;DHT22;15737;49.760;6.632;2022-07-05T03:50:01;11.90;99.90
28530;DHT22;15737;49.760;6.632;2022-07-05T03:52:27;11.90;99.90
28530;DHT22;15737;49.760;6.632;2022-07-05T03:54:53;11.90;99.90
28530;DHT22;15737;49.760;6.632;2022-07-05T03:57:18;11.90;99.90
28530;DHT22;15737;49.760;6.632;2022-07-05T03:59:44;11.90;99.90
28530;DHT22;15737;49.760;6.632;2022-07-05T04:02:09;12.00;99.90
28530;DHT22;15737;49.760;6.632;2022-07-05T04:04:35;12.20;99.90
28530;DHT22;15737;49.760;6.632;2022-07-05T04:07:01;12.30;99.90
28530;DHT22;15737;49.760;6.632;2022-07-05T04:09:26;12.50;99.90
28530;DHT22;15737;49.760;6.632;2022-07-05T04:11:52;12.80;99.90
28530;DHT22;15737;49.760;6.632;2022-07-05T04:14:17;13.00;99.90
28530;DHT22;15737;49.760;6.632;2022-07-05T04:16:43;13.10;99.90
28530;DHT22;15737;49.760;6.632;2022-07-05T04:19:08;13.30;99.90
28530;DHT22;15737;49.760;6.632;2022-07-05T04:21:34;13.60;99.90
28530;DHT22;15737;49.760;6.632;2022-07-05T04:23:59;13.80;99.90
28530;DHT22;15737;49.760;6.632;2022-07-05T04:26:26;14.20;99.90
28530;DHT22;15737;49.760;6.632;2022-07-05T04:28:51;14.80;99.90
28530;DHT22;15737;49.760;6.632;2022-07-05T04:31:17;15.60;99.90
28530;DHT22;15737;49.760;6.632;2022-07-05T04:33:42;16.10;99.90
28530;DHT22;15737;49.760;6.632;2022-07-05T04:36:08;16.40;99.90
28530;DHT22;15737;49.760;6.632;2022-07-05T04:38:34;16.70;99.90
28530;DHT22;15737;49.760;6.632;2022-07-05T04:40:59;17.30;99.90
28530;DHT22;15737;49.760;6.632;2022-07-05T04:43:25;17.80;99.90
28530;DHT22;15737;49.760;6.632;2022-07-05T04:45:50;18.30;99.90
28530;DHT22;15737;49.760;6.632;2022-07-05T04:48:16;18.70;99.90
28530;DHT22;15737;49.760;6.632;2022-07-05T04:50:41;18.90;99.00
28530;DHT22;15737;49.760;6.632;2022-07-05T04:53:07;18.80;98.70
28530;DHT22;15737;49.760;6.632;2022-07-05T04:55:33;19.00;98.00
28530;DHT22;15737;49.760;6.632;2022-07-05T04:57:58;19.50;97.10
28530;DHT22;15737;49.760;6.632;2022-07-05T05:00:24;19.90;95.80
28530;DHT22;15737;49.760;6.632;2022-07-05T05:02:49;19.90;94.90
28530;DHT22;15737;49.760;6.632;2022-07-05T05:05:15;20.00;94.30
28530;DHT22;15737;49.760;6.632;2022-07-05T05:07:44;20.30;93.60
28530;DHT22;15737;49.760;6.632;2022-07-05T05:10:11;20.90;92.20
28530;DHT22;15737;49.760;6.632;2022-07-05T05:12:37;21.50;90.80
28530;DHT22;15737;49.760;6.632;2022-07-05T05:15:03;21.70;89.40
28530;DHT22;15737;49.760;6.632;2022-07-05T05:17:39;22.10;86.10
28530;DHT22;15737;49.760;6.632;2022-07-05T05:20:09;22.80;82.10
28530;DHT22;15737;49.760;6.632;2022-07-05T05:22:35;23.60;78.30
28530;DHT22;15737;49.760;6.632;2022-07-05T05:25:00;24.40;74.20
28530;DHT22;15737;49.760;6.632;2022-07-05T05:27:26;25.10;70.40
28530;DHT22;15737;49.760;6.632;2022-07-05T05:29:51;25.70;67.00
28530;DHT22;15737;49.760;6.632;2022-07-05T05:32:17;26.20;64.20
28530;DHT22;15737;49.760;6.632;2022-07-05T05:34:42;26.60;61.80
28530;DHT22;15737;49.760;6.632;2022-07-05T05:37:09;27.00;59.80
28530;DHT22;15737;49.760;6.632;2022-07-05T05:39:35;27.40;58.10
28530;DHT22;15737;49.760;6.632;2022-07-05T05:42:01;27.60;57.30
28530;DHT22;15737;49.760;6.632;2022-07-05T05:44:26;27.80;56.30
28530;DHT22;15737;49.760;6.632;2022-07-05T05:47:00;27.70;55.80
28530;DHT22;15737;49.760;6.632;2022-07-05T05:49:26;27.60;55.30
28530;DHT22;15737;49.760;6.632;2022-07-05T05:51:51;27.70;54.70
28530;DHT22;15737;49.760;6.632;2022-07-05T05:54:17;28.10;53.40
28530;DHT22;15737;49.760;6.632;2022-07-05T05:56:42;28.30;52.60
28530;DHT22;15737;49.760;6.632;2022-07-05T05:59:08;28.10;52.20
28530;DHT22;15737;49.760;6.632;2022-07-05T06:01:34;28.20;52.10
28530;DHT22;15737;49.760;6.632;2022-07-05T06:03:59;28.50;51.20
28530;DHT22;15737;49.760;6.632;2022-07-05T06:06:25;29.50;49.60
28530;DHT22;15737;49.760;6.632;2022-07-05T06:08:50;29.60;48.70
28530;DHT22;15737;49.760;6.632;2022-07-05T06:11:16;29.50;48.90
28530;DHT22;15737;49.760;6.632;2022-07-05T06:13:56;30.30;47.50
28530;DHT22;15737;49.760;6.632;2022-07-05T06:16:21;30.50;47.10
28530;DHT22;15737;49.760;6.632;2022-07-05T06:18:47;31.10;45.70
28530;DHT22;15737;49.760;6.632;2022-07-05T06:21:12;31.40;45.30
28530;DHT22;15737;49.760;6.632;2022-07-05T06:23:38;32.30;43.70
28530;DHT22;15737;49.760;6.632;2022-07-05T06:26:04;33.00;42.60
28530;DHT22;15737;49.760;6.632;2022-07-05T06:28:29;33.40;41.50
28530;DHT22;15737;49.760;6.632;2022-07-05T06:30:57;33.90;40.60
28530;DHT22;15737;49.760;6.632;2022-07-05T06:33:22;34.50;39.70
28530;DHT22;15737;49.760;6.632;2022-07-05T06:35:48;33.80;40.20
28530;DHT22;15737;49.760;6.632;2022-07-05T06:38:13;34.20;39.80
28530;DHT22;15737;49.760;6.632;2022-07-05T06:40:41;34.80;38.80
28530;DHT22;15737;49.760;6.632;2022-07-05T06:43:10;35.20;38.10
28530;DHT22;15737;49.760;6.632;2022-07-05T06:45:36;34.90;38.50
28530;DHT22;15737;49.760;6.632;2022-07-05T06:48:06;35.70;37.40
28530;DHT22;15737;49.760;6.632;2022-07-05T06:50:34;35.70;37.40
28530;DHT22;15737;49.760;6.632;2022-07-05T06:53:01;36.40;36.60
28530;DHT22;15737;49.760;6.632;2022-07-05T06:55:27;37.30;35.70
28530;DHT22;15737;49.760;6.632;2022-07-05T06:58:01;37.30;34.90
28530;DHT22;15737;49.760;6.632;2022-07-05T07:00:27;37.00;35.30
28530;DHT22;15737;49.760;6.632;2022-07-05T07:02:53;37.60;34.70
28530;DHT22;15737;49.760;6.632;2022-07-05T07:05:19;38.10;34.20
28530;DHT22;15737;49.760;6.632;2022-07-05T07:07:45;37.90;34.40
28530;DHT22;15737;49.760;6.632;2022-07-05T07:10:29;38.20;34.10
28530;DHT22;15737;49.760;6.632;2022-07-05T07:12:59;38.30;34.00
28530;DHT22;15737;49.760;6.632;2022-07-05T07:15:26;39.10;32.90
28530;DHT22;15737;49.760;6.632;2022-07-05T07:17:52;37.80;34.30
28530;DHT22;15737;49.760;6.632;2022-07-05T07:20:17;37.10;34.60
28530;DHT22;15737;49.760;6.632;2022-07-05T07:22:43;37.60;33.90
28530;DHT22;15737;49.760;6.632;2022-07-05T07:25:09;37.60;34.00
28530;DHT22;15737;49.760;6.632;2022-07-05T07:27:47;37.40;34.00
28530;DHT22;15737;49.760;6.632;2022-07-05T07:30:18;37.00;34.50
28530;DHT22;15737;49.760;6.632;2022-07-05T07:32:44;38.60;32.90
28530;DHT22;15737;49.760;6.632;2022-07-05T07:35:11;38.80;32.60
28530;DHT22;15737;49.760;6.632;2022-07-05T07:37:38;38.60;32.70
28530;DHT22;15737;49.760;6.632;2022-07-05T07:40:05;38.60;32.80
28530;DHT22;15737;49.760;6.632;2022-07-05T07:42:30;38.90;32.40
28530;DHT22;15737;49.760;6.632;2022-07-05T07:44:56;38.90;32.30
28530;DHT22;15737;49.760;6.632;2022-07-05T07:47:22;39.20;32.20
28530;DHT22;15737;49.760;6.632;2022-07-05T07:49:47;40.00;31.30
28530;DHT22;15737;49.760;6.632;2022-07-05T07:52:13;40.50;31.00
28530;DHT22;15737;49.760;6.632;2022-07-05T07:54:39;40.90;30.60
28530;DHT22;15737;49.760;6.632;2022-07-05T07:57:05;40.30;31.20
28530;DHT22;15737;49.760;6.632;2022-07-05T07:59:32;40.20;31.00
28530;DHT22;15737;49.760;6.632;2022-07-05T08:01:57;39.70;31.60
28530;DHT22;15737;49.760;6.632;2022-07-05T08:04:23;40.90;30.60
28530;DHT22;15737;49.760;6.632;2022-07-05T08:06:48;41.70;29.70
28530;DHT22;15737;49.760;6.632;2022-07-05T08:09:14;41.60;29.60
28530;DHT22;15737;49.760;6.632;2022-07-05T08:11:40;41.00;29.70
28530;DHT22;15737;49.760;6.632;2022-07-05T08:14:06;39.60;30.70
28530;DHT22;15737;49.760;6.632;2022-07-05T08:16:31;38.20;31.50
28530;DHT22;15737;49.760;6.632;2022-07-05T08:18:57;37.90;32.20
28530;DHT22;15737;49.760;6.632;2022-07-05T08:21:41;38.50;31.50
28530;DHT22;15737;49.760;6.632;2022-07-05T08:24:09;38.40;31.60
28530;DHT22;15737;49.760;6.632;2022-07-05T08:26:36;38.20;31.80
28530;DHT22;15737;49.760;6.632;2022-07-05T08:29:04;38.70;31.00
28530;DHT22;15737;49.760;6.632;2022-07-05T08:31:44;37.80;31.90
28530;DHT22;15737;49.760;6.632;2022-07-05T08:34:11;37.50;32.10
28530;DHT22;15737;49.760;6.632;2022-07-05T08:36:37;37.30;32.20
28530;DHT22;15737;49.760;6.632;2022-07-05T08:39:03;37.30;32.20
28530;DHT22;15737;49.760;6.632;2022-07-05T08:41:29;38.20;31.30
28530;DHT22;15737;49.760;6.632;2022-07-05T08:43:58;38.90;30.70
28530;DHT22;15737;49.760;6.632;2022-07-05T08:46:25;39.40;30.60
28530;DHT22;15737;49.760;6.632;2022-07-05T08:48:55;40.30;29.60
28530;DHT22;15737;49.760;6.632;2022-07-05T08:51:23;39.60;29.90
28530;DHT22;15737;49.760;6.632;2022-07-05T08:53:52;38.30;30.30
28530;DHT22;15737;49.760;6.632;2022-07-05T08:56:19;36.40;31.60
28530;DHT22;15737;49.760;6.632;2022-07-05T08:58:45;37.00;31.20
28530;DHT22;15737;49.760;6.632;2022-07-05T09:01:12;39.90;29.30
28530;DHT22;15737;49.760;6.632;2022-07-05T09:03:49;38.80;30.20
28530;DHT22;15737;49.760;6.632;2022-07-05T09:06:21;36.50;32.60
28530;DHT22;15737;49.760;6.632;2022-07-05T09:08:48;37.30;31.10
28530;DHT22;15737;49.760;6.632;2022-07-05T09:11:16;38.50;29.60
28530;DHT22;15737;49.760;6.632;2022-07-05T09:13:48;38.70;29.50
28530;DHT22;15737;49.760;6.632;2022-07-05T09:16:14;40.20;28.70
28530;DHT22;15737;49.760;6.632;2022-07-05T09:18:46;41.20;28.60
28530;DHT22;15737;49.760;6.632;2022-07-05T09:23:39;39.20;29.80
28530;DHT22;15737;49.760;6.632;2022-07-05T09:26:05;35.60;33.20
28530;DHT22;15737;49.760;6.632;2022-07-05T09:28:30;33.10;36.10
28530;DHT22;15737;49.760;6.632;2022-07-05T09:30:56;31.20;37.30
28530;DHT22;15737;49.760;6.632;2022-07-05T09:33:21;29.70;39.10
28530;DHT22;15737;49.760;6.632;2022-07-05T09:35:54;30.80;38.20
28530;DHT22;15737;49.760;6.632;2022-07-05T09:38:22;35.30;33.10
28530;DHT22;15737;49.760;6.632;2022-07-05T09:40:59;39.00;29.80
28530;DHT22;15737;49.760;6.632;2022-07-05T09:43:28;39.40;29.00
28530;DHT22;15737;49.760;6.632;2022-07-05T09:46:02;38.00;29.50
28530;DHT22;15737;49.760;6.632;2022-07-05T09:48:29;36.90;30.30
28530;DHT22;15737;49.760;6.632;2022-07-05T09:51:05;36.60;30.50
28530;DHT22;15737;49.760;6.632;2022-07-05T09:53:45;37.10;30.00
28530;DHT22;15737;49.760;6.632;2022-07-05T09:56:11;37.10;30.00
28530;DHT22;15737;49.760;6.632;2022-07-05T09:58:37;36.40;30.60
28530;DHT22;15737;49.760;6.632;2022-07-05T10:01:26;36.40;30.70
28530;DHT22;15737;49.760;6.632;2022-07-05T10:03:57;35.80;31.10
28530;DHT22;15737;49.760;6.632;2022-07-05T10:06:25;36.30;31.00
28530;DHT22;15737;49.760;6.632;2022-07-05T10:08:52;36.60;30.80
28530;DHT22;15737;49.760;6.632;2022-07-05T10:13:51;31.70;36.10
28530;DHT22;15737;49.760;6.632;2022-07-05T10:16:18;29.70;39.20
28530;DHT22;15737;49.760;6.632;2022-07-05T10:18:45;28.70;40.80
28530;DHT22;15737;49.760;6.632;2022-07-05T10:21:16;28.70;40.60
28530;DHT22;15737;49.760;6.632;2022-07-05T10:23:47;30.60;38.40
28530;DHT22;15737;49.760;6.632;2022-07-05T10:26:15;32.80;35.70
28530;DHT22;15737;49.760;6.632;2022-07-05T10:28:45;35.20;33.50
28530;DHT22;15737;49.760;6.632;2022-07-05T10:31:15;37.10;31.10
28530;DHT22;15737;49.760;6.632;2022-07-05T10:33:41;36.70;30.70
28530;DHT22;15737;49.760;6.632;2022-07-05T10:36:09;37.10;29.90
28530;DHT22;15737;49.760;6.632;2022-07-05T10:38:38;36.10;30.00
28530;DHT22;15737;49.760;6.632;2022-07-05T10:41:07;34.30;31.80
28530;DHT22;15737;49.760;6.632;2022-07-05T10:43:33;34.30;32.60
28530;DHT22;15737;49.760;6.632;2022-07-05T10:45:59;35.40;31.90
28530;DHT22;15737;49.760;6.632;2022-07-05T10:48:25;36.60;31.20
28530;DHT22;15737;49.760;6.632;2022-07-05T10:50:59;37.20;29.90
28530;DHT22;15737;49.760;6.632;2022-07-05T10:53:43;36.40;30.60
28530;DHT22;15737;49.760;6.632;2022-07-05T10:56:14;36.30;30.80
28530;DHT22;15737;49.760;6.632;2022-07-05T10:58:45;36.20;31.10
28530;DHT22;15737;49.760;6.632;2022-07-05T11:03:54;35.70;31.50
28530;DHT22;15737;49.760;6.632;2022-07-05T11:06:30;36.20;31.10
28530;DHT22;15737;49.760;6.632;2022-07-05T11:11:33;34.40;32.60
28530;DHT22;15737;49.760;6.632;2022-07-05T11:16:34;35.40;30.40
28530;DHT22;15737;49.760;6.632;2022-07-05T11:19:17;35.10;30.60
28530;DHT22;15737;49.760;6.632;2022-07-05T11:22:02;35.10;29.80
28530;DHT22;15737;49.760;6.632;2022-07-05T11:24:30;33.40;30.80
28530;DHT22;15737;49.760;6.632;2022-07-05T11:27:01;32.90;31.80
28530;DHT22;15737;49.760;6.632;2022-07-05T11:29:50;32.70;32.20
28530;DHT22;15737;49.760;6.632;2022-07-05T11:32:17;32.10;33.10
28530;DHT22;15737;49.760;6.632;2022-07-05T11:34:44;32.40;33.20
28530;DHT22;15737;49.760;6.632;2022-07-05T11:42:38;32.10;34.10
28530;DHT22;15737;49.760;6.632;2022-07-05T11:45:10;31.00;36.10
28530;DHT22;15737;49.760;6.632;2022-07-05T11:47:36;30.40;37.10
28530;DHT22;15737;49.760;6.632;2022-07-05T11:50:02;30.00;37.70
28530;DHT22;15737;49.760;6.632;2022-07-05T11:52:33;30.10;37.80
28530;DHT22;15737;49.760;6.632;2022-07-05T11:55:00;30.10;38.00
28530;DHT22;15737;49.760;6.632;2022-07-05T11:57:26;30.00;38.20
28530;DHT22;15737;49.760;6.632;2022-07-05T11:59:52;30.40;38.30
28530;DHT22;15737;49.760;6.632;2022-07-05T12:02:18;31.90;37.20
28530;DHT22;15737;49.760;6.632;2022-07-05T12:04:51;33.90;35.50
28530;DHT22;15737;49.760;6.632;2022-07-05T12:07:31;34.70;33.30
28530;DHT22;15737;49.760;6.632;2022-07-05T12:09:57;33.90;33.80
28530;DHT22;15737;49.760;6.632;2022-07-05T12:12:42;33.70;34.30
28530;DHT22;15737;49.760;6.632;2022-07-05T12:15:09;32.90;34.70
28530;DHT22;15737;49.760;6.632;2022-07-05T12:17:36;32.40;35.70
28530;DHT22;15737;49.760;6.632;2022-07-05T12:20:03;32.20;36.50
28530;DHT22;15737;49.760;6.632;2022-07-05T12:22:36;32.60;36.50
28530;DHT22;15737;49.760;6.632;2022-07-05T12:25:05;32.70;35.20
28530;DHT22;15737;49.760;6.632;2022-07-05T12:27:35;32.50;34.70
28530;DHT22;15737;49.760;6.632;2022-07-05T12:30:02;32.40;35.10
28530;DHT22;15737;49.760;6.632;2022-07-05T12:32:28;31.60;36.00
28530;DHT22;15737;49.760;6.632;2022-07-05T12:34:56;30.40;37.10
28530;DHT22;15737;49.760;6.632;2022-07-05T12:37:26;29.80;38.20
28530;DHT22;15737;49.760;6.632;2022-07-05T12:40:08;30.50;37.80
28530;DHT22;15737;49.760;6.632;2022-07-05T12:42:37;31.40;36.40
28530;DHT22;15737;49.760;6.632;2022-07-05T12:45:13;32.10;35.80
28530;DHT22;15737;49.760;6.632;2022-07-05T12:50:19;34.00;34.00
28530;DHT22;15737;49.760;6.632;2022-07-05T12:55:36;33.90;33.70
28530;DHT22;15737;49.760;6.632;2022-07-05T12:58:20;32.10;35.50
28530;DHT22;15737;49.760;6.632;2022-07-05T13:00:46;31.20;36.70
28530;DHT22;15737;49.760;6.632;2022-07-05T13:03:12;30.90;36.90
28530;DHT22;15737;49.760;6.632;2022-07-05T13:05:37;30.60;37.40
28530;DHT22;15737;49.760;6.632;2022-07-05T13:08:03;30.50;37.60
28530;DHT22;15737;49.760;6.632;2022-07-05T13:10:29;30.70;37.60
28530;DHT22;15737;49.760;6.632;2022-07-05T13:12:57;31.40;37.00
28530;DHT22;15737;49.760;6.632;2022-07-05T13:15:23;31.90;36.00
28530;DHT22;15737;49.760;6.632;2022-07-05T13:17:49;31.60;35.80
28530;DHT22;15737;49.760;6.632;2022-07-05T13:20:17;30.50;37.40
28530;DHT22;15737;49.760;6.632;2022-07-05T13:22:44;30.00;37.70
28530;DHT22;15737;49.760;6.632;2022-07-05T13:25:13;29.30;38.30
28530;DHT22;15737;49.760;6.632;2022-07-05T13:27:40;29.80;37.80
28530;DHT22;15737;49.760;6.632;2022-07-05T13:30:06;30.80;37.10
28530;DHT22;15737;49.760;6.632;2022-07-05T13:32:32;32.30;35.60
28530;DHT22;15737;49.760;6.632;2022-07-05T13:35:03;33.50;34.30
28530;DHT22;15737;49.760;6.632;2022-07-05T13:37:44;33.60;33.60
28530;DHT22;15737;49.760;6.632;2022-07-05T13:40:24;33.40;33.50
28530;DHT22;15737;49.760;6.632;2022-07-05T13:42:57;33.10;33.50
28530;DHT22;15737;49.760;6.632;2022-07-05T13:45:22;32.90;31.90
28530;DHT22;15737;49.760;6.632;2022-07-05T13:47:48;32.30;32.80
28530;DHT22;15737;49.760;6.632;2022-07-05T13:50:13;31.80;33.90
28530;DHT22;15737;49.760;6.632;2022-07-05T13:53:00;31.60;34.40
28530;DHT22;15737;49.760;6.632;2022-07-05T13:55:26;32.30;34.30
28530;DHT22;15737;49.760;6.632;2022-07-05T13:57:52;33.30;33.70
28530;DHT22;15737;49.760;6.632;2022-07-05T14:00:18;34.30;32.90
28530;DHT22;15737;49.760;6.632;2022-07-05T14:02:45;34.70;32.20
28530;DHT22;15737;49.760;6.632;2022-07-05T14:05:10;34.30;32.80
28530;DHT22;15737;49.760;6.632;2022-07-05T14:07:37;34.30;32.40
28530;DHT22;15737;49.760;6.632;2022-07-05T14:10:03;34.30;31.60
28530;DHT22;15737;49.760;6.632;2022-07-05T14:12:29;33.00;32.80
28530;DHT22;15737;49.760;6.632;2022-07-05T14:14:55;32.90;33.00
28530;DHT22;15737;49.760;6.632;2022-07-05T14:17:20;32.20;33.50
28530;DHT22;15737;49.760;6.632;2022-07-05T14:19:46;31.50;33.70
28530;DHT22;15737;49.760;6.632;2022-07-05T14:22:11;30.60;34.60
28530;DHT22;15737;49.760;6.632;2022-07-05T14:24:37;29.60;35.40
28530;DHT22;15737;49.760;6.632;2022-07-05T14:27:03;29.30;36.20
28530;DHT22;15737;49.760;6.632;2022-07-05T14:29:32;29.90;35.90
28530;DHT22;15737;49.760;6.632;2022-07-05T14:31:58;31.10;35.10
28530;DHT22;15737;49.760;6.632;2022-07-05T14:34:23;31.90;34.10
28530;DHT22;15737;49.760;6.632;2022-07-05T14:36:49;31.00;34.60
28530;DHT22;15737;49.760;6.632;2022-07-05T14:39:14;30.10;35.50
28530;DHT22;15737;49.760;6.632;2022-07-05T14:41:40;29.10;36.90
28530;DHT22;15737;49.760;6.632;2022-07-05T14:44:05;28.30;38.20
28530;DHT22;15737;49.760;6.632;2022-07-05T14:46:31;28.00;38.60
28530;DHT22;15737;49.760;6.632;2022-07-05T14:48:56;27.70;38.80
28530;DHT22;15737;49.760;6.632;2022-07-05T14:51:22;28.00;38.90
28530;DHT22;15737;49.760;6.632;2022-07-05T14:53:47;28.10;38.70
28530;DHT22;15737;49.760;6.632;2022-07-05T14:56:14;28.60;38.30
28530;DHT22;15737;49.760;6.632;2022-07-05T14:58:40;29.00;37.60
28530;DHT22;15737;49.760;6.632;2022-07-05T15:01:06;29.30;36.70
28530;DHT22;15737;49.760;6.632;2022-07-05T15:03:32;29.20;37.10
28530;DHT22;15737;49.760;6.632;2022-07-05T15:05:57;29.10;37.20
28530;DHT22;15737;49.760;6.632;2022-07-05T15:08:23;29.20;37.10
28530;DHT22;15737;49.760;6.632;2022-07-05T15:10:50;29.50;37.50
28530;DHT22;15737;49.760;6.632;2022-07-05T15:13:17;29.40;38.10
28530;DHT22;15737;49.760;6.632;2022-07-05T15:15:43;29.30;37.80
28530;DHT22;15737;49.760;6.632;2022-07-05T15:18:08;29.80;37.60
28530;DHT22;15737;49.760;6.632;2022-07-05T15:20:34;29.50;37.60
28530;DHT22;15737;49.760;6.632;2022-07-05T15:22:59;29.40;37.80
28530;DHT22;15737;49.760;6.632;2022-07-05T15:25:25;29.30;38.00
28530;DHT22;15737;49.760;6.632;2022-07-05T15:27:51;29.00;38.40
28530;DHT22;15737;49.760;6.632;2022-07-05T15:30:17;28.90;38.70
28530;DHT22;15737;49.760;6.632;2022-07-05T15:32:43;28.90;38.70
28530;DHT22;15737;49.760;6.632;2022-07-05T15:35:09;28.80;38.60
28530;DHT22;15737;49.760;6.632;2022-07-05T15:37:35;28.50;39.10
28530;DHT22;15737;49.760;6.632;2022-07-05T15:40:01;28.30;39.40
28530;DHT22;15737;49.760;6.632;2022-07-05T15:42:28;28.60;39.30
28530;DHT22;15737;49.760;6.632;2022-07-05T15:44:53;28.70;38.70
28530;DHT22;15737;49.760;6.632;2022-07-05T15:47:19;28.70;38.70
28530;DHT22;15737;49.760;6.632;2022-07-05T15:49:44;28.80;38.70
28530;DHT22;15737;49.760;6.632;2022-07-05T15:52:10;29.20;37.70
28530;DHT22;15737;49.760;6.632;2022-07-05T15:54:35;29.50;37.70